createdAt,value
2019-02-19T00:01:58.513Z,99.90
2019-02-19T00:04:24.876Z,99.90
2019-02-19T00:06:51.221Z,99.90
2019-02-19T00:09:17.632Z,99.90
2019-02-19T00:11:44.047Z,99.90
2019-02-19T00:14:10.372Z,99.90
2019-02-19T00:16:37.743Z,99.90
2019-02-19T00:19:04.109Z,99.90
2019-02-19T00:21:30.480Z,99.90
2019-02-19T00:23:56.829Z,99.90
2019-02-19T00:26:23.160Z,99.90
2019-02-19T00:28:49.531Z,99.90
2019-02-19T00:31:15.913Z,99.90
2019-02-19T00:33:42.264Z,99.90
2019-02-19T00:36:08.631Z,99.90
2019-02-19T00:38:34.995Z,99.90
2019-02-19T00:41:01.382Z,99.90
2019-02-19T00:43:30.920Z,99.90
2019-02-19T00:45:57.265Z,99.90
2019-02-19T00:48:23.683Z,99.90
2019-02-19T00:50:50.043Z,99.90
2019-02-19T00:53:16.399Z,99.90
2019-02-19T00:55:42.814Z,99.90
2019-02-19T00:58:09.187Z,99.90
2019-02-19T01:00:35.565Z,99.90
2019-02-19T01:03:01.928Z,99.90
2019-02-19T01:05:28.392Z,99.90
2019-02-19T01:07:54.774Z,99.90
2019-02-19T01:10:21.142Z,99.90
2019-02-19T01:12:47.526Z,99.90
2019-02-19T01:15:13.921Z,99.90
2019-02-19T01:17:40.287Z,99.90
2019-02-19T01:20:08.195Z,99.90
2019-02-19T01:22:34.550Z,99.90
2019-02-19T01:25:00.963Z,99.90
2019-02-19T01:27:27.290Z,99.90
2019-02-19T01:29:53.691Z,99.90
2019-02-19T01:32:20.059Z,99.90
2019-02-19T01:34:46.446Z,99.90
2019-02-19T01:37:12.819Z,99.90
2019-02-19T01:39:39.223Z,99.90
2019-02-19T01:42:05.541Z,99.90
2019-02-19T01:44:31.936Z,99.90
2019-02-19T01:46:58.330Z,99.90
2019-02-19T01:49:24.718Z,99.90
2019-02-19T01:51:51.155Z,99.90
2019-02-19T01:54:17.552Z,99.90
2019-02-19T01:56:43.910Z,99.90
2019-02-19T01:59:10.214Z,99.90
2019-02-19T02:01:36.612Z,99.90
2019-02-19T02:04:02.974Z,99.90
2019-02-19T02:06:29.480Z,99.90
2019-02-19T02:08:55.841Z,99.90
2019-02-19T02:11:22.263Z,99.90
2019-02-19T02:13:48.657Z,99.90
2019-02-19T02:16:15.003Z,99.90
2019-02-19T02:18:41.370Z,99.90
2019-02-19T02:21:07.718Z,99.90
2019-02-19T02:23:34.085Z,99.90
2019-02-19T02:26:00.429Z,99.90
2019-02-19T02:28:26.820Z,99.90
2019-02-19T02:30:53.319Z,99.90
2019-02-19T02:33:19.714Z,99.90
2019-02-19T02:35:46.109Z,99.90
2019-02-19T02:38:12.475Z,99.90
2019-02-19T02:40:38.875Z,99.90
2019-02-19T02:43:05.234Z,99.90
2019-02-19T02:45:31.630Z,99.90
2019-02-19T02:47:57.983Z,99.90
2019-02-19T02:50:24.342Z,99.90
2019-02-19T02:52:50.721Z,99.90
2019-02-19T02:55:17.249Z,99.90
2019-02-19T02:57:43.621Z,99.90
2019-02-19T03:00:11.845Z,99.90
2019-02-19T03:02:38.193Z,99.90
2019-02-19T03:05:04.773Z,99.90
2019-02-19T03:07:33.054Z,99.90
2019-02-19T03:09:59.419Z,99.90
2019-02-19T03:12:25.819Z,99.90
2019-02-19T03:14:52.168Z,99.90
2019-02-19T03:17:18.639Z,99.90
2019-02-19T03:19:45.017Z,99.90
2019-02-19T03:22:11.456Z,99.90
2019-02-19T03:24:37.830Z,99.90
2019-02-19T03:27:04.221Z,99.90
2019-02-19T03:29:30.619Z,99.90
2019-02-19T03:31:57.007Z,99.90
2019-02-19T03:34:24.448Z,99.90
2019-02-19T03:36:50.863Z,99.90
2019-02-19T03:39:17.196Z,99.90
2019-02-19T03:41:43.578Z,99.90
2019-02-19T03:44:09.922Z,99.90
2019-02-19T03:46:36.411Z,99.90
2019-02-19T03:49:02.747Z,99.90
2019-02-19T03:51:29.168Z,99.90
2019-02-19T03:53:55.632Z,99.90
2019-02-19T03:56:21.992Z,99.90
2019-02-19T03:58:48.521Z,99.90
2019-02-19T04:01:14.935Z,99.90
2019-02-19T04:03:42.331Z,99.90
2019-02-19T04:06:08.810Z,99.90
2019-02-19T04:08:35.209Z,99.90
2019-02-19T04:11:01.617Z,99.90
2019-02-19T04:13:27.967Z,99.90
2019-02-19T04:15:54.401Z,99.90
2019-02-19T04:18:23.524Z,99.90
2019-02-19T04:20:49.946Z,99.90
2019-02-19T04:23:16.305Z,99.90
2019-02-19T04:25:43.841Z,99.90
2019-02-19T04:28:10.170Z,99.90
2019-02-19T04:30:36.552Z,99.90
2019-02-19T04:33:02.909Z,99.90
2019-02-19T04:35:29.349Z,99.90
2019-02-19T04:37:55.764Z,99.90
2019-02-19T04:40:22.127Z,99.90
2019-02-19T04:42:48.595Z,99.90
2019-02-19T04:45:15.039Z,99.90
2019-02-19T04:47:41.408Z,99.90
2019-02-19T04:50:07.907Z,99.90
2019-02-19T04:52:34.242Z,99.90
2019-02-19T04:55:00.585Z,99.90
2019-02-19T04:57:27.012Z,99.90
2019-02-19T04:59:53.367Z,99.90
2019-02-19T05:02:19.692Z,99.90
2019-02-19T05:04:46.080Z,99.90
2019-02-19T05:07:12.448Z,99.90
2019-02-19T05:09:38.799Z,99.90
2019-02-19T05:12:05.163Z,99.90
2019-02-19T05:14:31.580Z,99.90
2019-02-19T05:16:58.009Z,99.90
2019-02-19T05:19:24.372Z,99.90
2019-02-19T05:21:50.740Z,99.90
2019-02-19T05:24:17.096Z,99.90
2019-02-19T05:26:43.479Z,99.90
2019-02-19T05:29:09.825Z,99.90
2019-02-19T05:31:36.167Z,99.90
2019-02-19T05:34:02.564Z,99.90
2019-02-19T05:36:28.920Z,99.90
2019-02-19T05:38:55.273Z,99.90
2019-02-19T05:41:21.700Z,99.90
2019-02-19T05:43:48.064Z,99.90
2019-02-19T05:46:14.480Z,99.90
2019-02-19T05:48:40.864Z,99.90
2019-02-19T05:51:07.329Z,99.90
2019-02-19T05:53:34.803Z,99.90
2019-02-19T05:56:01.173Z,99.90
2019-02-19T05:58:27.581Z,99.90
2019-02-19T06:00:53.921Z,99.90
2019-02-19T06:03:20.298Z,99.90
2019-02-19T06:05:46.693Z,99.90
2019-02-19T06:08:13.046Z,99.90
2019-02-19T06:10:39.475Z,99.90
2019-02-19T06:13:05.943Z,99.90
2019-02-19T06:15:32.361Z,99.90
2019-02-19T06:17:58.730Z,99.90
2019-02-19T06:20:25.106Z,99.90
2019-02-19T06:22:51.485Z,99.90
2019-02-19T06:25:17.897Z,99.90
2019-02-19T06:27:44.234Z,99.90
2019-02-19T06:30:11.915Z,99.90
2019-02-19T06:32:38.225Z,99.90
2019-02-19T06:35:05.643Z,99.90
2019-02-19T06:37:31.965Z,99.90
2019-02-19T06:39:58.377Z,99.90
2019-02-19T06:42:24.747Z,99.90
2019-02-19T06:44:51.123Z,99.90
2019-02-19T06:47:17.479Z,99.90
2019-02-19T06:49:43.872Z,99.90
2019-02-19T06:52:10.235Z,99.90
2019-02-19T06:54:36.629Z,99.90
2019-02-19T06:57:02.992Z,99.90
2019-02-19T06:59:29.379Z,99.90
2019-02-19T07:02:03.474Z,99.90
2019-02-19T07:04:31.785Z,99.90
2019-02-19T07:06:58.256Z,99.90
2019-02-19T07:09:24.649Z,99.90
2019-02-19T07:11:51.098Z,99.90
2019-02-19T07:14:17.432Z,99.90
2019-02-19T07:16:43.909Z,99.90
2019-02-19T07:19:10.299Z,99.90
2019-02-19T07:21:36.691Z,99.90
2019-02-19T07:24:04.672Z,99.90
2019-02-19T07:26:31.250Z,99.90
2019-02-19T07:28:57.662Z,99.90
2019-02-19T07:31:24.027Z,99.90
2019-02-19T07:33:51.291Z,99.90
2019-02-19T07:36:17.789Z,99.90
2019-02-19T07:38:44.193Z,99.90
2019-02-19T07:41:10.527Z,99.90
2019-02-19T07:43:36.883Z,99.90
2019-02-19T07:46:03.186Z,99.90
2019-02-19T07:48:29.584Z,99.90
2019-02-19T07:50:55.924Z,99.90
2019-02-19T07:53:22.335Z,99.90
2019-02-19T07:55:48.716Z,99.90
2019-02-19T07:58:15.124Z,99.90
2019-02-19T08:00:41.474Z,99.90
2019-02-19T08:03:07.860Z,99.90
2019-02-19T08:05:34.219Z,99.90
2019-02-19T08:08:00.568Z,99.90
2019-02-19T08:10:26.932Z,99.90
2019-02-19T08:12:53.327Z,99.90
2019-02-19T08:15:19.704Z,99.90
2019-02-19T08:17:46.065Z,99.90
2019-02-19T08:20:15.787Z,99.90
2019-02-19T08:22:40.755Z,99.90
2019-02-19T08:25:07.226Z,99.90
2019-02-19T08:27:33.582Z,99.90
2019-02-19T08:30:00.092Z,99.90
2019-02-19T08:32:26.616Z,99.90
2019-02-19T08:34:53.080Z,99.90
2019-02-19T08:37:19.507Z,99.90
2019-02-19T08:39:45.976Z,99.90
2019-02-19T08:42:12.349Z,99.90
2019-02-19T08:44:38.780Z,97.50
2019-02-19T08:47:05.092Z,93.90
2019-02-19T08:49:31.487Z,90.00
2019-02-19T08:51:57.831Z,82.40
2019-02-19T08:54:24.244Z,79.60
2019-02-19T08:56:50.621Z,77.40
2019-02-19T08:59:17.006Z,75.60
2019-02-19T09:01:43.353Z,71.30
2019-02-19T09:04:09.704Z,69.10
2019-02-19T09:06:36.066Z,70.30
2019-02-19T09:09:04.335Z,70.50
2019-02-19T09:11:32.710Z,67.00
2019-02-19T09:13:59.072Z,66.70
2019-02-19T09:16:26.070Z,65.90
2019-02-19T09:18:52.588Z,64.30
2019-02-19T09:21:18.929Z,67.10
2019-02-19T09:23:45.323Z,69.20
2019-02-19T09:26:11.658Z,69.40
2019-02-19T09:28:38.114Z,71.60
2019-02-19T09:31:04.442Z,74.10
2019-02-19T09:33:30.891Z,71.40
2019-02-19T09:35:57.302Z,66.90
2019-02-19T09:38:23.651Z,64.80
2019-02-19T09:40:50.075Z,59.60
2019-02-19T09:43:16.462Z,57.50
2019-02-19T09:45:42.823Z,57.00
2019-02-19T09:48:09.193Z,55.80
2019-02-19T09:50:35.561Z,53.10
2019-02-19T09:53:01.935Z,54.20
2019-02-19T09:55:28.332Z,52.90
2019-02-19T09:57:54.684Z,50.00
2019-02-19T10:00:21.031Z,50.10
2019-02-19T10:02:47.442Z,51.30
2019-02-19T10:05:13.794Z,50.00
2019-02-19T10:07:40.216Z,50.00
2019-02-19T10:10:13.125Z,49.80
2019-02-19T10:12:39.532Z,50.50
2019-02-19T10:15:11.053Z,51.60
2019-02-19T10:17:37.838Z,53.50
2019-02-19T10:20:06.774Z,53.30
2019-02-19T10:22:33.187Z,56.70
2019-02-19T10:24:59.546Z,60.20
2019-02-19T10:27:25.920Z,65.40
2019-02-19T10:29:52.307Z,65.70
2019-02-19T10:32:18.737Z,68.80
2019-02-19T10:34:45.098Z,65.80
2019-02-19T10:37:11.504Z,67.50
2019-02-19T10:39:37.877Z,68.70
2019-02-19T10:42:04.224Z,68.40
2019-02-19T10:44:30.620Z,66.60
2019-02-19T10:46:56.947Z,65.80
2019-02-19T10:49:23.333Z,65.50
2019-02-19T10:51:49.683Z,66.30
2019-02-19T10:54:16.031Z,60.60
2019-02-19T10:56:42.469Z,60.90
2019-02-19T10:59:08.828Z,59.60
2019-02-19T11:01:35.231Z,59.40
2019-02-19T11:04:01.572Z,59.40
2019-02-19T11:06:28.142Z,60.90
2019-02-19T11:08:54.521Z,60.40
2019-02-19T11:11:20.897Z,62.90
2019-02-19T11:13:47.231Z,62.70
2019-02-19T11:16:13.697Z,62.50
2019-02-19T11:18:40.050Z,61.50
2019-02-19T11:21:06.399Z,60.10
2019-02-19T11:23:33.790Z,62.80
2019-02-19T11:26:00.288Z,62.60
2019-02-19T11:28:26.668Z,62.20
2019-02-19T11:30:53.158Z,63.40
2019-02-19T11:33:19.499Z,64.00
2019-02-19T11:35:45.988Z,64.60
2019-02-19T11:38:12.392Z,68.80
2019-02-19T11:40:38.726Z,68.80
2019-02-19T11:43:05.130Z,68.40
2019-02-19T11:45:31.517Z,67.60
2019-02-19T11:47:57.867Z,65.80
2019-02-19T11:50:24.216Z,67.40
2019-02-19T11:52:50.562Z,67.20
2019-02-19T11:55:18.163Z,68.00
2019-02-19T11:57:44.683Z,67.60
2019-02-19T12:00:16.622Z,67.00
2019-02-19T12:02:43.121Z,63.80
2019-02-19T12:05:09.560Z,60.90
2019-02-19T12:07:36.001Z,60.60
2019-02-19T12:10:04.303Z,60.30
2019-02-19T12:12:30.657Z,57.10
2019-02-19T12:14:57.141Z,54.10
2019-02-19T12:17:23.507Z,52.70
2019-02-19T12:19:49.883Z,51.60
2019-02-19T12:22:16.364Z,50.70
2019-02-19T12:24:42.672Z,49.00
2019-02-19T12:27:09.102Z,46.70
2019-02-19T12:29:35.452Z,47.60
2019-02-19T12:32:01.878Z,47.20
2019-02-19T12:34:28.279Z,48.70
2019-02-19T12:36:55.515Z,48.50
2019-02-19T12:39:21.934Z,49.70
2019-02-19T12:41:48.354Z,50.70
2019-02-19T12:44:14.777Z,49.50
2019-02-19T12:46:41.165Z,51.30
2019-02-19T12:49:07.554Z,51.60
2019-02-19T12:51:33.950Z,53.40
2019-02-19T12:54:00.309Z,53.00
2019-02-19T12:56:27.061Z,53.40
2019-02-19T12:58:53.651Z,53.80
2019-02-19T13:01:20.137Z,52.90
2019-02-19T13:03:46.509Z,55.30
2019-02-19T13:06:12.882Z,57.30
2019-02-19T13:08:39.220Z,59.30
2019-02-19T13:11:05.627Z,62.10
2019-02-19T13:13:31.975Z,65.10
2019-02-19T13:15:58.389Z,63.40
2019-02-19T13:18:24.732Z,65.40
2019-02-19T13:20:51.172Z,67.70
2019-02-19T13:23:17.546Z,69.10
2019-02-19T13:25:43.927Z,68.50
2019-02-19T13:28:10.263Z,69.10
2019-02-19T13:30:36.707Z,70.10
2019-02-19T13:33:03.285Z,71.00
2019-02-19T13:35:29.748Z,73.60
2019-02-19T13:37:56.151Z,75.10
2019-02-19T13:40:22.500Z,77.60
2019-02-19T13:42:48.931Z,78.60
2019-02-19T13:45:15.586Z,79.50
2019-02-19T13:47:42.334Z,82.30
2019-02-19T13:50:17.517Z,84.20
2019-02-19T13:52:55.249Z,85.70
2019-02-19T13:55:23.532Z,88.60
2019-02-19T13:57:49.891Z,90.40
2019-02-19T14:00:21.058Z,91.10
2019-02-19T14:02:47.548Z,91.70
2019-02-19T14:05:15.036Z,91.80
2019-02-19T14:07:41.452Z,92.20
2019-02-19T14:10:09.408Z,92.10
2019-02-19T14:12:35.822Z,92.40
2019-02-19T14:15:06.279Z,92.60
2019-02-19T14:17:32.676Z,92.50
2019-02-19T14:20:00.925Z,92.60
2019-02-19T14:22:29.238Z,92.60
2019-02-19T14:25:09.584Z,92.50
2019-02-19T14:27:38.001Z,92.80
2019-02-19T14:30:09.714Z,93.10
2019-02-19T14:32:44.069Z,93.40
2019-02-19T14:35:15.280Z,93.50
2019-02-19T14:37:43.497Z,93.80
2019-02-19T14:40:11.783Z,94.40
2019-02-19T14:42:56.703Z,94.40
2019-02-19T14:45:36.719Z,94.60
2019-02-19T14:48:13.764Z,94.80
2019-02-19T14:50:42.089Z,95.60
2019-02-19T14:53:27.191Z,95.90
2019-02-19T14:55:55.515Z,96.00
2019-02-19T14:58:26.791Z,96.10
2019-02-19T15:00:57.933Z,96.20
2019-02-19T15:03:38.451Z,96.30
2019-02-19T15:06:12.339Z,96.50
2019-02-19T15:08:40.592Z,96.60
2019-02-19T15:11:11.852Z,96.60
2019-02-19T15:13:40.105Z,97.00
2019-02-19T15:16:25.691Z,97.10
2019-02-19T15:18:53.941Z,97.20
2019-02-19T15:21:37.387Z,97.40
2019-02-19T15:24:06.151Z,97.70
2019-02-19T15:26:46.525Z,98.00
2019-02-19T15:29:15.521Z,98.10
2019-02-19T15:31:44.468Z,98.10
2019-02-19T15:34:28.075Z,98.30
2019-02-19T15:36:59.598Z,98.70
2019-02-19T15:39:31.222Z,98.40
2019-02-19T15:42:12.157Z,98.30
2019-02-19T15:44:40.403Z,98.60
2019-02-19T15:47:12.331Z,98.60
2019-02-19T15:49:47.518Z,98.80
2019-02-19T15:52:23.335Z,98.60
2019-02-19T15:55:03.673Z,98.60
2019-02-19T15:57:32.046Z,98.70
2019-02-19T16:00:16.960Z,98.80
2019-02-19T16:02:48.622Z,98.90
2019-02-19T16:05:16.915Z,99.10
2019-02-19T16:07:48.306Z,99.20
2019-02-19T16:10:20.257Z,99.10
2019-02-19T16:13:05.338Z,99.20
2019-02-19T16:15:34.046Z,99.20
2019-02-19T16:18:11.498Z,99.40
2019-02-19T16:20:39.884Z,99.30
2019-02-19T16:23:14.340Z,99.40
2019-02-19T16:25:43.041Z,99.30
2019-02-19T16:28:29.210Z,99.40
2019-02-19T16:31:01.142Z,99.60
2019-02-19T16:33:29.465Z,99.60
2019-02-19T16:35:58.204Z,99.80
2019-02-19T16:38:43.439Z,99.80
2019-02-19T16:41:28.264Z,99.70
2019-02-19T16:44:14.944Z,99.90
2019-02-19T16:46:55.065Z,99.90
2019-02-19T16:49:26.170Z,99.90
2019-02-19T16:51:54.516Z,99.90
2019-02-19T16:54:23.236Z,99.90
2019-02-19T16:56:54.543Z,99.90
2019-02-19T16:59:23.001Z,99.90
2019-02-19T17:01:54.191Z,99.90
2019-02-19T17:04:25.804Z,99.90
2019-02-19T17:06:54.093Z,99.90
2019-02-19T17:09:22.675Z,99.90
2019-02-19T17:11:51.003Z,99.90
2019-02-19T17:14:19.923Z,99.90
2019-02-19T17:16:54.405Z,99.90
2019-02-19T17:19:38.262Z,99.90
2019-02-19T17:22:23.209Z,99.90
2019-02-19T17:24:54.522Z,99.90
2019-02-19T17:27:41.066Z,99.90
2019-02-19T17:30:10.852Z,99.90
2019-02-19T17:32:42.069Z,99.90
2019-02-19T17:35:13.642Z,99.90
2019-02-19T17:37:41.982Z,99.90
2019-02-19T17:40:10.789Z,99.90
2019-02-19T17:42:48.858Z,99.90
2019-02-19T17:45:17.479Z,99.90
2019-02-19T17:47:48.935Z,99.90
2019-02-19T17:50:26.520Z,99.90
2019-02-19T17:52:54.816Z,99.90
2019-02-19T17:55:40.422Z,99.90
2019-02-19T17:58:15.147Z,99.90
2019-02-19T18:00:50.182Z,99.90
2019-02-19T18:03:27.857Z,99.90
2019-02-19T18:06:08.411Z,99.90
2019-02-19T18:08:36.842Z,99.90
2019-02-19T18:11:14.605Z,99.90
2019-02-19T18:13:42.911Z,99.90
2019-02-19T18:16:13.931Z,99.90
2019-02-19T18:18:46.210Z,99.90
2019-02-19T18:21:12.708Z,99.90
2019-02-19T18:23:39.272Z,99.90
2019-02-19T18:26:06.088Z,99.90
2019-02-19T18:28:33.406Z,99.90
2019-02-19T18:31:00.276Z,99.90
2019-02-19T18:33:27.979Z,99.90
2019-02-19T18:35:54.952Z,99.90
2019-02-19T18:38:21.653Z,99.90
2019-02-19T18:40:48.348Z,99.90
2019-02-19T18:43:14.729Z,99.90
2019-02-19T18:45:41.260Z,99.90
2019-02-19T18:48:07.654Z,99.90
2019-02-19T18:50:34.095Z,99.90
2019-02-19T18:53:00.485Z,99.90
2019-02-19T18:55:26.931Z,99.90
2019-02-19T18:57:53.430Z,99.90
2019-02-19T19:00:19.860Z,99.90
2019-02-19T19:02:46.346Z,99.90
2019-02-19T19:05:12.759Z,99.90
2019-02-19T19:07:39.277Z,99.90
2019-02-19T19:10:08.733Z,99.90
2019-02-19T19:12:35.178Z,99.90
2019-02-19T19:15:01.535Z,99.90
2019-02-19T19:17:28.942Z,99.90
2019-02-19T19:19:55.430Z,99.90
2019-02-19T19:22:21.895Z,99.90
2019-02-19T19:24:48.304Z,99.90
2019-02-19T19:27:14.718Z,99.90
2019-02-19T19:29:41.136Z,99.90
2019-02-19T19:32:08.614Z,99.90
2019-02-19T19:34:35.583Z,99.90
2019-02-19T19:37:02.310Z,99.90
2019-02-19T19:39:29.038Z,99.90
2019-02-19T19:41:56.252Z,99.90
2019-02-19T19:44:22.693Z,99.90
2019-02-19T19:46:49.079Z,99.90
2019-02-19T19:49:15.567Z,99.90
2019-02-19T19:51:42.014Z,99.90
2019-02-19T19:54:08.437Z,99.90
2019-02-19T19:56:34.858Z,99.90
2019-02-19T19:59:01.312Z,99.90
2019-02-19T20:01:27.818Z,99.90
2019-02-19T20:03:54.279Z,99.90
2019-02-19T20:06:20.972Z,99.90
2019-02-19T20:08:47.519Z,99.90
2019-02-19T20:11:13.984Z,99.90
2019-02-19T20:13:40.360Z,99.90
2019-02-19T20:16:06.801Z,99.90
2019-02-19T20:18:38.977Z,99.90
2019-02-19T20:21:01.882Z,99.90
2019-02-19T20:23:28.843Z,99.90
2019-02-19T20:25:55.257Z,99.90
2019-02-19T20:28:22.065Z,99.90
2019-02-19T20:30:48.641Z,99.90
2019-02-19T20:33:15.261Z,99.90
2019-02-19T20:35:41.764Z,99.90
2019-02-19T20:38:08.255Z,99.90
2019-02-19T20:40:35.885Z,99.90
2019-02-19T20:43:02.315Z,99.90
2019-02-19T20:45:29.313Z,99.90
2019-02-19T20:47:55.717Z,99.90
2019-02-19T20:50:22.797Z,99.90
2019-02-19T20:52:49.691Z,99.90
2019-02-19T20:55:16.154Z,99.90
2019-02-19T20:57:42.613Z,99.90
2019-02-19T21:00:15.217Z,99.90
2019-02-19T21:02:43.910Z,99.90
2019-02-19T21:05:10.641Z,99.90
2019-02-19T21:07:37.108Z,99.90
2019-02-19T21:10:07.686Z,99.90
2019-02-19T21:12:34.838Z,99.90
2019-02-19T21:15:01.449Z,99.90
2019-02-19T21:17:30.523Z,99.90
2019-02-19T21:19:56.981Z,99.90
2019-02-19T21:22:23.415Z,99.90
2019-02-19T21:24:50.098Z,99.90
2019-02-19T21:27:16.605Z,99.90
2019-02-19T21:29:43.533Z,99.90
2019-02-19T21:32:10.049Z,99.90
2019-02-19T21:34:36.601Z,99.90
2019-02-19T21:37:03.077Z,99.90
2019-02-19T21:39:29.415Z,99.90
2019-02-19T21:41:55.954Z,99.90
2019-02-19T21:44:22.481Z,99.90
2019-02-19T21:46:48.910Z,99.90
2019-02-19T21:49:15.224Z,99.90
2019-02-19T21:51:41.903Z,99.90
2019-02-19T21:54:08.318Z,99.90
2019-02-19T21:56:34.815Z,99.90
2019-02-19T21:59:01.188Z,99.90
2019-02-19T22:01:27.644Z,99.90
2019-02-19T22:03:54.181Z,99.90
2019-02-19T22:06:20.623Z,99.90
2019-02-19T22:08:47.165Z,99.90
2019-02-19T22:11:13.818Z,99.90
2019-02-19T22:13:40.215Z,99.90
2019-02-19T22:16:06.621Z,99.90
2019-02-19T22:18:33.073Z,99.90
2019-02-19T22:21:19.563Z,99.90
2019-02-19T22:23:45.930Z,99.90
2019-02-19T22:26:12.390Z,99.90
2019-02-19T22:28:38.740Z,99.90
2019-02-19T22:31:05.148Z,99.90
2019-02-19T22:33:31.515Z,99.90
2019-02-19T22:35:57.941Z,99.90
2019-02-19T22:38:24.365Z,99.90
2019-02-19T22:40:55.264Z,99.90
2019-02-19T22:43:18.981Z,99.90
2019-02-19T22:45:45.403Z,99.90
2019-02-19T22:48:11.763Z,99.90
2019-02-19T22:50:38.207Z,99.90
2019-02-19T22:53:06.463Z,99.90
2019-02-19T22:55:34.797Z,99.90
2019-02-19T22:58:01.158Z,99.90
2019-02-19T23:00:48.628Z,99.90
2019-02-19T23:03:35.690Z,99.90
2019-02-19T23:06:17.562Z,99.90
2019-02-19T23:08:44.049Z,99.90
2019-02-19T23:11:10.456Z,99.90
2019-02-19T23:13:38.540Z,99.90
2019-02-19T23:16:05.177Z,99.90
2019-02-19T23:18:31.739Z,99.90
2019-02-19T23:20:58.113Z,99.90
2019-02-19T23:23:24.536Z,99.90
2019-02-19T23:25:50.925Z,99.90
2019-02-19T23:28:20.483Z,99.90
2019-02-19T23:30:46.847Z,99.90
2019-02-19T23:33:13.264Z,99.90
2019-02-19T23:35:41.644Z,99.90
2019-02-19T23:38:08.073Z,99.90
2019-02-19T23:40:34.542Z,99.90
2019-02-19T23:43:01.046Z,99.90
2019-02-19T23:45:27.430Z,99.90
2019-02-19T23:47:53.847Z,99.90
2019-02-19T23:50:20.201Z,99.90
2019-02-19T23:52:46.665Z,99.90
2019-02-19T23:55:13.024Z,99.90
2019-02-19T23:57:39.423Z,99.90
